Time;durP1;ratioP1;P1;durP2;ratioP2;P2;SDS_P1;SDS_P2;PMS_P1;PMS_P2;Temp;Humidity;BMP_temperature;BMP_pressure;BME280_temperature;BME280_humidity;BME280_pressure;Samples;Min_cycle;Max_cycle;Signal;HPM_P1;HPM_P2
2022/01/02 00:01:45;;;;;;;4.77;3.30;;;18.50;66.10;;;;;;5046794;28;20521;-59
2022/01/02 00:04:15;;;;;;;5.82;3.28;;;18.50;66.00;;;;;;5045980;28;20261;-63
2022/01/02 00:06:49;;;;;;;5.97;3.53;;;18.60;66.00;;;;;;5046164;28;20071;-63
2022/01/02 00:09:35;;;;;;;5.18;3.15;;;18.50;66.00;;;;;;5044553;28;20024;-62
2022/01/02 00:12:12;;;;;;;5.05;3.17;;;18.50;66.00;;;;;;5041740;28;20025;-62
2022/01/02 00:14:42;;;;;;;4.90;3.10;;;18.50;66.00;;;;;;5045981;28;20036;-63
2022/01/02 00:17:07;;;;;;;4.35;3.17;;;18.50;66.00;;;;;;5044843;28;20543;-63
2022/01/02 00:19:34;;;;;;;4.35;2.97;;;18.50;66.00;;;;;;5046186;28;20033;-63
2022/01/02 00:22:02;;;;;;;3.60;2.78;;;18.50;66.00;;;;;;5045914;28;20041;-61
2022/01/02 00:24:28;;;;;;;4.03;2.60;;;18.50;66.00;;;;;;5045642;28;20087;-62
2022/01/02 00:26:54;;;;;;;5.28;2.92;;;18.50;65.90;;;;;;5045624;28;20447;-61
2022/01/02 00:29:20;;;;;;;3.90;2.95;;;18.50;65.90;;;;;;5045365;28;20073;-63
2022/01/02 00:31:45;;;;;;;3.70;2.30;;;18.50;65.90;;;;;;5042579;28;20037;-63
2022/01/02 00:34:11;;;;;;;4.28;3.05;;;18.50;65.90;;;;;;5044403;28;20386;-61
2022/01/02 00:36:37;;;;;;;4.78;2.92;;;18.50;65.90;;;;;;5045273;28;20082;-63
2022/01/02 00:39:03;;;;;;;3.55;2.67;;;18.50;65.90;;;;;;5045334;28;20104;-62
2022/01/02 00:41:43;;;;;;;4.18;2.88;;;18.50;65.90;;;;;;5045641;28;20093;-59
2022/01/02 00:44:50;;;;;;;3.15;2.40;;;18.50;65.90;;;;;;5042951;28;20401;-63
2022/01/02 00:47:19;;;;;;;3.63;2.53;;;18.50;66.20;;;;;;5041539;28;20237;-62
2022/01/02 00:49:51;;;;;;;4.13;2.83;;;18.50;65.90;;;;;;5045539;28;20027;-63
2022/01/02 00:52:17;;;;;;;3.75;2.60;;;18.50;65.90;;;;;;5019580;28;20025;-63
2022/01/02 00:54:46;;;;;;;3.55;2.38;;;18.50;65.80;;;;;;5048302;28;20040;-65
2022/01/02 00:57:17;;;;;;;5.82;3.40;;;18.50;65.90;;;;;;5044900;28;20412;-62
2022/01/02 00:59:48;;;;;;;3.97;2.75;;;18.50;65.80;;;;;;5044528;28;20057;-62
2022/01/02 01:02:17;;;;;;;3.13;2.13;;;18.50;65.80;;;;;;5043280;28;20106;-63
2022/01/02 01:04:43;;;;;;;3.47;2.47;;;18.50;65.80;;;;;;5043566;28;20056;-63
2022/01/02 01:07:08;;;;;;;2.92;2.00;;;18.50;65.80;;;;;;5045429;28;20131;-62
2022/01/02 01:09:34;;;;;;;3.90;2.25;;;18.50;65.70;;;;;;5043364;28;20037;-62
2022/01/02 01:12:00;;;;;;;4.07;2.83;;;18.50;65.70;;;;;;5043881;28;20094;-62
2022/01/02 01:14:26;;;;;;;3.85;2.20;;;18.50;65.70;;;;;;5045233;28;20508;-63
2022/01/02 01:16:52;;;;;;;4.25;1.92;;;18.50;65.70;;;;;;5043753;28;20102;-63
2022/01/02 01:19:18;;;;;;;4.47;2.13;;;18.50;65.70;;;;;;5044764;28;20029;-62
2022/01/02 01:21:43;;;;;;;3.10;2.05;;;18.50;65.70;;;;;;5044920;28;20044;-64
2022/01/02 01:24:09;;;;;;;2.50;2.15;;;18.50;65.60;;;;;;5045179;28;20017;-63
2022/01/02 01:26:34;;;;;;;2.95;2.15;;;18.50;65.60;;;;;;5044674;28;20527;-63
2022/01/02 01:29:00;;;;;;;5.20;2.35;;;18.50;65.60;;;;;;5044217;28;20044;-63
2022/01/02 01:31:25;;;;;;;3.83;2.03;;;18.50;65.50;;;;;;5042609;28;20554;-63
2022/01/02 01:33:51;;;;;;;2.97;1.90;;;18.50;65.60;;;;;;5044084;28;20021;-63
2022/01/02 01:36:16;;;;;;;3.75;2.20;;;18.50;65.50;;;;;;5044543;28;20029;-61
2022/01/02 01:38:42;;;;;;;3.70;2.78;;;18.50;65.50;;;;;;5043926;28;20392;-62
2022/01/02 01:41:30;;;;;;;4.07;2.35;;;18.50;65.50;;;;;;5044359;28;20029;-62
2022/01/02 01:44:09;;;;;;;3.47;2.17;;;18.50;65.50;;;;;;5044225;28;20032;-63
2022/01/02 01:46:35;;;;;;;2.92;1.85;;;18.50;65.50;;;;;;5042727;28;20025;-61
2022/01/02 01:49:00;;;;;;;3.95;2.30;;;18.50;65.50;;;;;;5043481;28;20044;-62
2022/01/02 01:51:26;;;;;;;2.63;2.00;;;18.50;65.50;;;;;;5044709;28;20025;-63
2022/01/02 01:53:51;;;;;;;2.63;2.20;;;18.50;65.50;;;;;;5043979;28;20025;-60
2022/01/02 01:56:17;;;;;;;2.80;2.17;;;18.50;65.50;;;;;;5044180;28;20037;-62
2022/01/02 01:58:42;;;;;;;3.15;1.90;;;18.50;65.50;;;;;;5043294;28;20027;-61
2022/01/02 02:01:08;;;;;;;2.63;2.03;;;18.50;65.50;;;;;;5042716;28;20139;-63
2022/01/02 02:03:34;;;;;;;3.20;1.67;;;18.50;65.50;;;;;;5043544;28;20497;-61
2022/01/02 02:06:00;;;;;;;3.85;2.10;;;18.50;65.50;;;;;;5043771;28;20795;-63
2022/01/02 02:08:27;;;;;;;2.83;1.83;;;18.40;65.40;;;;;;5042045;28;20036;-59
2022/01/02 02:10:56;;;;;;;4.38;1.98;;;18.40;65.40;;;;;;5042852;28;20478;-63
2022/01/02 02:13:21;;;;;;;2.63;2.15;;;18.50;65.50;;;;;;5032830;28;20025;-62
2022/01/02 02:15:47;;;;;;;2.63;1.80;;;18.40;65.40;;;;;;5043640;28;20098;-61
2022/01/02 02:18:12;;;;;;;2.42;1.63;;;18.50;65.50;;;;;;5040798;28;20397;-63
2022/01/02 02:20:38;;;;;;;3.97;1.85;;;18.50;65.50;;;;;;5043992;28;20057;-62
2022/01/02 02:23:03;;;;;;;2.25;1.42;;;18.50;65.40;;;;;;5043391;28;20108;-61
2022/01/02 02:25:30;;;;;;;3.22;2.50;;;18.40;65.30;;;;;;5043132;28;20349;-61
2022/01/02 02:28:07;;;;;;;1.63;1.50;;;18.50;65.40;;;;;;5043594;28;20032;-60
2022/01/02 02:30:34;;;;;;;2.55;1.85;;;18.40;65.30;;;;;;5043242;28;20041;-58
2022/01/02 02:33:00;;;;;;;2.42;2.13;;;18.50;65.40;;;;;;5043454;28;20441;-63
2022/01/02 02:35:26;;;;;;;2.75;1.95;;;18.40;65.30;;;;;;5042161;28;20037;-62
2022/01/02 02:37:52;;;;;;;2.28;1.70;;;18.40;66.00;;;;;;5043443;28;20029;-60
2022/01/02 02:40:19;;;;;;;1.92;1.48;;;18.40;65.40;;;;;;5042733;28;20525;-61
2022/01/02 02:42:59;;;;;;;2.15;1.70;;;18.40;65.30;;;;;;5043197;28;20497;-61
2022/01/02 02:49:13;;;;;;;3.42;1.80;;;18.40;65.30;;;;;;5041883;28;20040;-63
2022/01/02 02:51:17;;;;;;;2.35;1.70;;;18.40;65.30;;;;;;5032384;28;20033;-57
2022/01/02 02:53:44;;;;;;;2.63;1.65;;;18.40;65.30;;;;;;5043125;28;20033;-62
2022/01/02 02:58:45;;;;;;;1.98;1.33;;;18.40;65.30;;;;;;5042941;28;20603;-63
2022/01/02 03:01:12;;;;;;;2.03;1.60;;;18.40;65.30;;;;;;5048764;28;20032;-62
2022/01/02 03:03:38;;;;;;;2.38;1.58;;;18.40;65.30;;;;;;5049700;28;20032;-63
2022/01/02 03:06:04;;;;;;;2.25;1.75;;;18.40;65.20;;;;;;5049528;28;20108;-62
2022/01/02 03:08:30;;;;;;;3.28;1.90;;;18.40;65.20;;;;;;5050007;28;20063;-63
2022/01/02 03:10:55;;;;;;;2.40;1.80;;;18.40;65.20;;;;;;5047137;28;20032;-60
2022/01/02 03:13:21;;;;;;;2.92;1.80;;;18.40;65.20;;;;;;5048154;28;20487;-61
2022/01/02 03:15:46;;;;;;;2.65;1.88;;;18.40;65.30;;;;;;5049832;28;20036;-63
2022/01/02 03:18:12;;;;;;;2.80;1.90;;;18.40;65.30;;;;;;5049646;28;20377;-60
2022/01/02 03:20:37;;;;;;;2.97;1.85;;;18.40;65.30;;;;;;5050258;28;20043;-63
2022/01/02 03:23:03;;;;;;;2.03;1.85;;;18.40;65.30;;;;;;5049395;28;20033;-63
2022/01/02 03:25:28;;;;;;;1.58;1.48;;;18.40;65.30;;;;;;5049239;28;20170;-63
2022/01/02 03:27:53;;;;;;;2.05;1.63;;;18.40;65.30;;;;;;5049367;28;20029;-62
2022/01/02 03:30:19;;;;;;;2.60;1.70;;;18.40;65.30;;;;;;5049401;28;20037;-60
2022/01/02 03:32:44;;;;;;;2.47;1.77;;;18.40;65.30;;;;;;5047611;28;20032;-62
2022/01/02 03:35:10;;;;;;;2.60;1.63;;;18.40;65.20;;;;;;5050684;28;20484;-62
2022/01/02 03:37:35;;;;;;;3.92;1.60;;;18.40;65.30;;;;;;5050786;28;20516;-63
2022/01/02 03:40:04;;;;;;;2.40;2.20;;;18.40;65.30;;;;;;5049149;28;20103;-62
2022/01/02 03:42:29;;;;;;;2.13;1.50;;;18.40;65.30;;;;;;5049867;28;20043;-61
2022/01/02 03:44:57;;;;;;;2.25;1.70;;;18.40;65.30;;;;;;5050706;28;20021;-62
2022/01/02 03:47:23;;;;;;;2.92;1.40;;;18.40;65.30;;;;;;5049135;28;20405;-62
2022/01/02 03:49:48;;;;;;;2.80;1.77;;;18.40;65.30;;;;;;5048464;28;20030;-63
2022/01/02 03:52:14;;;;;;;3.97;1.70;;;18.40;65.30;;;;;;5050225;28;20109;-61
2022/01/02 03:54:39;;;;;;;2.38;1.58;;;18.30;65.20;;;;;;5049812;28;20025;-62
2022/01/02 03:57:05;;;;;;;1.50;1.38;;;18.30;65.20;;;;;;5049461;28;20588;-63
2022/01/02 03:59:30;;;;;;;3.05;1.58;;;18.30;65.30;;;;;;5049542;28;20098;-62
2022/01/02 04:01:56;;;;;;;2.10;1.42;;;18.30;65.30;;;;;;5049474;28;20030;-62
2022/01/02 04:04:21;;;;;;;2.22;1.42;;;18.30;65.30;;;;;;5047669;28;20033;-61
2022/01/02 04:06:47;;;;;;;3.75;2.00;;;18.30;65.20;;;;;;5048521;28;20041;-62
2022/01/02 04:09:12;;;;;;;2.08;1.65;;;18.30;65.30;;;;;;5049883;28;20504;-59
2022/01/02 04:11:38;;;;;;;2.50;1.58;;;18.30;65.20;;;;;;5048871;28;20029;-62
2022/01/02 04:14:03;;;;;;;2.45;1.55;;;18.30;65.20;;;;;;5047162;28;20021;-61
2022/01/02 04:16:29;;;;;;;3.47;1.73;;;18.30;65.20;;;;;;5045283;28;20028;-60
2022/01/02 04:18:54;;;;;;;2.05;1.65;;;18.30;65.30;;;;;;5045835;28;20021;-61
2022/01/02 04:21:20;;;;;;;4.35;1.75;;;18.30;65.20;;;;;;5046014;28;20025;-62
2022/01/02 04:23:45;;;;;;;3.05;1.60;;;18.30;65.20;;;;;;5045244;28;20033;-62
2022/01/02 04:26:10;;;;;;;2.20;1.70;;;18.30;65.20;;;;;;5046406;28;20521;-61
2022/01/02 04:28:36;;;;;;;2.55;1.85;;;18.30;65.20;;;;;;5044619;28;20583;-62
2022/01/02 04:31:02;;;;;;;2.15;1.60;;;18.30;65.20;;;;;;5045466;28;20029;-63
2022/01/02 04:33:27;;;;;;;2.40;1.65;;;18.30;65.20;;;;;;5044422;28;20513;-62
2022/01/02 04:35:53;;;;;;;3.65;1.83;;;18.30;65.30;;;;;;5045463;28;20549;-62
2022/01/02 04:38:19;;;;;;;4.03;1.60;;;18.30;65.20;;;;;;5045003;28;20496;-61
2022/01/02 04:40:44;;;;;;;2.47;1.60;;;18.30;65.20;;;;;;5044908;28;20033;-60
2022/01/02 04:43:10;;;;;;;1.83;1.35;;;18.30;65.20;;;;;;5045520;28;20044;-62
2022/01/02 04:45:35;;;;;;;1.90;1.50;;;18.30;65.20;;;;;;5044921;28;20063;-59
2022/01/02 04:48:01;;;;;;;2.70;1.65;;;18.30;65.10;;;;;;5045117;28;20521;-63
2022/01/02 04:50:26;;;;;;;1.83;1.30;;;18.30;65.10;;;;;;5043692;28;20036;-62
2022/01/02 04:52:52;;;;;;;2.53;1.60;;;18.30;65.10;;;;;;5044685;28;20051;-61
2022/01/02 04:55:17;;;;;;;3.65;1.95;;;18.30;65.10;;;;;;5045079;28;20058;-62
2022/01/02 04:57:43;;;;;;;1.75;1.42;;;18.30;65.10;;;;;;5045862;28;20021;-61
2022/01/02 05:00:09;;;;;;;2.53;1.38;;;18.30;65.00;;;;;;5044754;28;20032;-59
2022/01/02 05:02:35;;;;;;;2.13;1.50;;;18.30;65.00;;;;;;5045273;28;20136;-60
2022/01/02 05:05:00;;;;;;;2.35;1.30;;;18.30;65.00;;;;;;5045308;28;20115;-63
2022/01/02 05:07:25;;;;;;;2.50;1.35;;;18.40;65.40;;;;;;5044424;28;20124;-62
2022/01/02 05:09:51;;;;;;;1.83;1.33;;;18.40;65.00;;;;;;5044953;28;20029;-62
2022/01/02 05:12:16;;;;;;;1.33;1.10;;;18.30;64.90;;;;;;5043339;28;20028;-60
2022/01/02 05:14:42;;;;;;;2.55;1.23;;;18.30;64.90;;;;;;5045831;28;20120;-62
2022/01/02 05:17:07;;;;;;;1.67;1.30;;;18.40;64.90;;;;;;5045087;28;20045;-63
2022/01/02 05:19:33;;;;;;;1.80;1.40;;;18.40;64.90;;;;;;5043025;28;20033;-61
2022/01/02 05:21:58;;;;;;;1.90;1.48;;;18.30;64.80;;;;;;5044219;28;20045;-62
2022/01/02 05:24:24;;;;;;;1.52;1.33;;;18.40;64.90;;;;;;5044504;28;20043;-62
2022/01/02 05:26:51;;;;;;;1.58;1.48;;;18.40;64.90;;;;;;5044595;28;20033;-62
2022/01/02 05:29:16;;;;;;;2.42;1.30;;;18.30;64.80;;;;;;5044296;28;20079;-63
2022/01/02 05:31:42;;;;;;;1.83;1.38;;;18.30;64.80;;;;;;5044878;28;20037;-63
2022/01/02 05:34:07;;;;;;;1.73;1.20;;;18.30;64.80;;;;;;5044717;28;20017;-63
2022/01/02 05:36:33;;;;;;;2.17;1.35;;;18.30;64.80;;;;;;5044153;28;20029;-57
2022/01/02 05:38:58;;;;;;;2.17;1.35;;;18.30;64.80;;;;;;5044271;28;20086;-62
2022/01/02 05:41:26;;;;;;;2.00;1.40;;;18.30;64.80;;;;;;5043411;28;20120;-63
2022/01/02 05:43:53;;;;;;;1.70;1.17;;;18.30;64.80;;;;;;5044250;28;20041;-59
2022/01/02 05:46:18;;;;;;;1.38;1.10;;;18.30;64.80;;;;;;5043940;28;20029;-61
2022/01/02 05:48:44;;;;;;;1.75;1.40;;;18.30;64.80;;;;;;5044350;28;20452;-63
2022/01/02 05:51:10;;;;;;;1.70;1.30;;;18.30;64.80;;;;;;5044200;28;20029;-61
2022/01/02 05:53:35;;;;;;;1.42;1.27;;;18.30;64.80;;;;;;5043864;28;20060;-63
2022/01/02 05:56:01;;;;;;;2.15;1.30;;;18.30;64.70;;;;;;5044428;28;20117;-63
2022/01/02 05:58:26;;;;;;;2.38;1.70;;;18.40;64.80;;;;;;5043506;28;20039;-61
2022/01/02 06:00:52;;;;;;;1.52;1.20;;;18.40;64.70;;;;;;5043510;28;20400;-61
2022/01/02 06:03:17;;;;;;;2.25;1.48;;;18.30;64.70;;;;;;5043448;28;20033;-57
2022/01/02 06:05:43;;;;;;;2.35;1.35;;;18.30;64.70;;;;;;5044604;28;20025;-62
2022/01/02 06:08:09;;;;;;;3.65;1.58;;;18.30;64.70;;;;;;5043240;28;20033;-57
2022/01/02 06:10:34;;;;;;;2.95;1.35;;;18.30;64.60;;;;;;5043368;28;20033;-61
2022/01/02 06:13:00;;;;;;;2.20;1.15;;;18.30;64.70;;;;;;5042977;28;20029;-59
2022/01/02 06:15:25;;;;;;;1.35;1.10;;;18.30;64.60;;;;;;5043859;28;20508;-62
2022/01/02 06:17:51;;;;;;;1.40;1.00;;;18.30;64.70;;;;;;5013569;28;20210;-62
2022/01/02 06:20:16;;;;;;;1.73;1.20;;;18.40;64.70;;;;;;5049192;28;20029;-61
2022/01/02 06:22:42;;;;;;;2.20;1.50;;;18.30;64.60;;;;;;5034661;28;20040;-62
2022/01/02 06:25:08;;;;;;;1.85;1.40;;;18.30;64.60;;;;;;5050962;28;20410;-59
2022/01/02 06:27:34;;;;;;;1.60;1.40;;;18.30;64.60;;;;;;5043957;28;20041;-61
2022/01/02 06:29:59;;;;;;;1.17;1.08;;;18.30;64.60;;;;;;5043157;28;20029;-62
2022/01/02 06:32:25;;;;;;;1.52;1.20;;;18.30;64.60;;;;;;5042242;28;20102;-61
2022/01/02 06:34:50;;;;;;;2.10;1.17;;;18.30;64.70;;;;;;5042720;28;20021;-63
2022/01/02 06:37:16;;;;;;;1.70;1.33;;;18.30;64.60;;;;;;5043639;28;20032;-60
2022/01/02 06:39:41;;;;;;;2.28;1.30;;;18.30;64.60;;;;;;5043233;28;20374;-62
2022/01/02 06:42:07;;;;;;;1.65;1.35;;;18.30;64.70;;;;;;5042911;28;20029;-61
2022/01/02 06:44:32;;;;;;;2.92;1.60;;;18.30;64.60;;;;;;5043439;28;20117;-61
2022/01/02 06:46:58;;;;;;;1.38;1.20;;;18.30;64.60;;;;;;5043826;28;20037;-62
2022/01/02 06:49:23;;;;;;;1.63;1.17;;;18.30;64.50;;;;;;5042469;28;20017;-62
2022/01/02 06:51:49;;;;;;;2.42;1.17;;;18.30;64.50;;;;;;5043327;28;20658;-63
2022/01/02 06:54:14;;;;;;;1.50;1.00;;;18.30;64.50;;;;;;5043834;28;20035;-62
2022/01/02 06:56:40;;;;;;;1.77;1.40;;;18.30;64.50;;;;;;5042617;28;20033;-62
2022/01/02 06:59:05;;;;;;;1.85;1.23;;;18.40;64.50;;;;;;5043157;28;20774;-61
2022/01/02 07:01:31;;;;;;;2.83;1.20;;;18.40;64.50;;;;;;5042738;28;20080;-62
2022/01/02 07:03:57;;;;;;;2.63;1.02;;;18.30;64.50;;;;;;5042772;28;20037;-62
2022/01/02 07:06:22;;;;;;;1.70;1.33;;;18.40;65.10;;;;;;5042790;28;20027;-58
2022/01/02 07:08:48;;;;;;;1.52;1.13;;;18.30;64.40;;;;;;5042766;28;20032;-63
2022/01/02 07:11:13;;;;;;;1.00;0.90;;;18.30;64.50;;;;;;5042999;28;20459;-63
2022/01/02 07:13:40;;;;;;;1.40;1.00;;;18.30;64.50;;;;;;5042550;28;20115;-62
2022/01/02 07:16:06;;;;;;;1.08;0.73;;;18.30;64.40;;;;;;5043375;28;20071;-63
2022/01/02 07:18:31;;;;;;;1.52;1.23;;;18.30;64.50;;;;;;5042266;28;20033;-62
2022/01/02 07:20:57;;;;;;;2.45;1.17;;;18.30;64.40;;;;;;5043100;28;20027;-61
2022/01/02 07:23:22;;;;;;;1.90;1.17;;;18.30;64.40;;;;;;5043052;28;20025;-62
2022/01/02 07:25:48;;;;;;;3.13;2.25;;;18.30;64.40;;;;;;5043077;28;20289;-63
2022/01/02 07:28:13;;;;;;;3.72;1.38;;;18.30;64.40;;;;;;5042728;28;20047;-62
2022/01/02 07:30:39;;;;;;;3.10;1.30;;;18.30;64.40;;;;;;5042244;28;20025;-62
2022/01/02 07:33:04;;;;;;;2.47;1.30;;;18.30;64.40;;;;;;5042433;28;20095;-62
2022/01/02 07:35:30;;;;;;;1.63;1.10;;;18.30;64.40;;;;;;5043590;28;20405;-61
2022/01/02 07:37:57;;;;;;;1.75;1.00;;;18.30;64.40;;;;;;5042810;28;20083;-62
2022/01/02 07:40:23;;;;;;;1.38;1.02;;;18.40;64.40;;;;;;5042546;28;20064;-64
2022/01/02 07:42:48;;;;;;;2.08;1.33;;;18.40;64.40;;;;;;5041387;28;20513;-64
2022/01/02 07:45:14;;;;;;;1.92;1.10;;;18.30;64.30;;;;;;5043545;28;20091;-64
2022/01/02 07:47:39;;;;;;;1.30;1.00;;;18.30;64.30;;;;;;5046818;28;20040;-64
2022/01/02 07:50:06;;;;;;;1.73;1.13;;;18.30;64.30;;;;;;5046735;28;20029;-64
2022/01/02 07:52:31;;;;;;;2.00;1.10;;;18.30;64.30;;;;;;5046295;28;20128;-64
2022/01/02 07:54:57;;;;;;;2.13;1.88;;;18.30;64.30;;;;;;5044627;28;20167;-64
2022/01/02 07:57:22;;;;;;;2.03;1.15;;;18.30;64.30;;;;;;5045907;28;20025;-64
2022/01/02 07:59:48;;;;;;;1.10;0.90;;;18.30;64.30;;;;;;5046973;28;20036;-64
2022/01/02 08:02:13;;;;;;;2.78;1.30;;;18.30;64.30;;;;;;5028015;28;20074;-62
2022/01/02 08:04:39;;;;;;;1.60;1.30;;;18.30;64.30;;;;;;5045451;28;20017;-64
2022/01/02 08:07:04;;;;;;;1.90;1.40;;;18.30;64.30;;;;;;5046557;28;20017;-64
2022/01/02 08:09:29;;;;;;;1.15;1.00;;;18.30;64.30;;;;;;5045752;28;20125;-65
2022/01/02 08:11:55;;;;;;;2.40;1.02;;;18.30;64.30;;;;;;5044707;28;20045;-64
2022/01/02 08:14:21;;;;;;;2.30;1.50;;;18.30;64.30;;;;;;5045816;28;20026;-64
2022/01/02 08:16:47;;;;;;;2.53;1.00;;;18.30;64.20;;;;;;5046594;28;20075;-65
2022/01/02 08:19:12;;;;;;;1.48;1.00;;;18.30;64.30;;;;;;5043592;28;20428;-63
2022/01/02 08:21:39;;;;;;;2.03;1.10;;;18.30;64.20;;;;;;5044904;28;20055;-64
2022/01/02 08:24:05;;;;;;;2.10;1.02;;;18.30;64.20;;;;;;5045440;28;20037;-64
2022/01/02 08:26:30;;;;;;;1.52;0.93;;;18.30;64.30;;;;;;5045804;28;20041;-64
2022/01/02 08:29:00;;;;;;;1.83;1.08;;;18.30;64.30;;;;;;5045258;28;20029;-62
2022/01/02 08:31:25;;;;;;;1.38;0.98;;;18.30;64.40;;;;;;5045303;28;20147;-63
2022/01/02 08:33:51;;;;;;;1.40;0.98;;;18.30;64.40;;;;;;5045603;28;20560;-64
2022/01/02 08:36:16;;;;;;;1.40;1.00;;;18.30;64.40;;;;;;5046384;28;20029;-62
2022/01/02 08:38:42;;;;;;;1.85;1.08;;;18.30;64.40;;;;;;5044982;28;20036;-60
2022/01/02 08:41:07;;;;;;;2.33;1.27;;;18.30;64.50;;;;;;5045428;28;20033;-62
2022/01/02 08:43:34;;;;;;;2.42;1.52;;;18.30;64.60;;;;;;5045468;28;20034;-61
2022/01/02 08:46:00;;;;;;;2.03;1.45;;;18.30;64.80;;;;;;5045585;28;20083;-62
2022/01/02 08:48:25;;;;;;;4.15;1.30;;;18.30;64.90;;;;;;5045093;28;20041;-61
2022/01/02 08:50:51;;;;;;;1.50;1.15;;;18.30;65.20;;;;;;5044390;28;20440;-62
2022/01/02 08:53:17;;;;;;;5.15;2.15;;;18.30;65.40;;;;;;5045435;28;20035;-61
2022/01/02 08:55:42;;;;;;;7.68;2.33;;;18.30;65.40;;;;;;5045505;28;20455;-62
2022/01/02 08:58:08;;;;;;;6.68;2.63;;;18.30;65.60;;;;;;5044863;28;25464;-60
2022/01/02 09:00:34;;;;;;;8.43;3.40;;;18.30;65.70;;;;;;5045472;28;20095;-58
2022/01/02 09:02:59;;;;;;;8.50;3.40;;;18.30;65.80;;;;;;5044397;28;20568;-59
2022/01/02 09:05:26;;;;;;;10.63;4.90;;;18.30;65.90;;;;;;5045307;28;20059;-63
2022/01/02 09:07:52;;;;;;;7.57;4.00;;;18.30;66.00;;;;;;5046272;28;20059;-61
2022/01/02 09:10:18;;;;;;;5.53;3.67;;;18.30;66.20;;;;;;5045718;28;20041;-63
2022/01/02 09:12:44;;;;;;;8.65;4.18;;;18.30;66.10;;;;;;5046693;28;20036;-60
2022/01/02 09:15:10;;;;;;;10.48;4.05;;;18.30;66.20;;;;;;5046210;28;20029;-62
2022/01/02 09:17:35;;;;;;;6.47;4.18;;;18.30;66.20;;;;;;5045449;28;20029;-62
2022/01/02 09:20:01;;;;;;;8.73;4.60;;;18.30;66.20;;;;;;5044668;28;20060;-66
2022/01/02 09:22:26;;;;;;;8.82;4.07;;;18.30;66.20;;;;;;5046800;28;20033;-61
2022/01/02 09:24:53;;;;;;;6.25;4.07;;;18.30;66.20;;;;;;5045044;28;20078;-61
2022/01/02 09:27:18;;;;;;;6.78;4.47;;;18.30;66.20;;;;;;5045666;28;20025;-65
2022/01/02 09:29:44;;;;;;;8.23;3.90;;;18.30;66.20;;;;;;5044774;28;20070;-65
2022/01/02 09:32:09;;;;;;;9.80;4.55;;;18.30;66.10;;;;;;5044823;28;20079;-63
2022/01/02 09:34:35;;;;;;;11.13;4.03;;;18.30;66.10;;;;;;5044467;28;20806;-65
2022/01/02 09:37:01;;;;;;;7.70;4.03;;;18.30;66.10;;;;;;5044017;28;20601;-61
2022/01/02 09:39:26;;;;;;;8.43;4.30;;;18.30;66.20;;;;;;5044017;28;20047;-65
2022/01/02 09:41:53;;;;;;;6.43;4.40;;;18.30;66.10;;;;;;5044647;28;20025;-65
2022/01/02 09:44:18;;;;;;;16.60;7.38;;;18.30;66.00;;;;;;5045186;28;20033;-64
2022/01/02 09:46:44;;;;;;;18.08;9.55;;;18.30;66.20;;;;;;5042975;28;20032;-61
2022/01/02 09:49:09;;;;;;;27.23;12.55;;;18.30;66.30;;;;;;5042914;28;20486;-64
2022/01/02 09:51:35;;;;;;;33.90;14.30;;;18.30;66.40;;;;;;5042943;28;20036;-65
2022/01/02 09:54:00;;;;;;;34.13;16.73;;;18.30;66.50;;;;;;5044032;28;20044;-66
2022/01/02 09:56:26;;;;;;;39.40;16.20;;;18.30;66.60;;;;;;5044619;28;20033;-65
2022/01/02 09:58:52;;;;;;;43.00;18.35;;;18.30;66.50;;;;;;5044796;28;20040;-66
2022/01/02 10:01:24;;;;;;;33.65;15.95;;;18.30;66.50;;;;;;5045292;28;20143;-65
2022/01/02 10:03:54;;;;;;;33.13;17.08;;;18.30;66.50;;;;;;5042766;28;20033;-65
2022/01/02 10:06:21;;;;;;;38.17;16.23;;;18.30;66.40;;;;;;5044611;28;20199;-66
2022/01/02 10:08:46;;;;;;;30.48;15.65;;;18.30;66.40;;;;;;5045003;28;20512;-65
2022/01/02 10:11:22;;;;;;;38.50;14.80;;;18.30;66.40;;;;;;5043837;28;20053;-66
2022/01/02 10:13:52;;;;;;;34.88;15.73;;;18.30;66.40;;;;;;5032580;28;20040;-63
2022/01/02 10:16:40;;;;;;;32.67;14.93;;;18.30;66.30;;;;;;5043646;28;20037;-65
2022/01/02 10:19:26;;;;;;;36.83;16.17;;;18.30;66.20;;;;;;5043146;28;20719;-65
2022/01/02 10:21:57;;;;;;;38.88;16.42;;;18.30;66.40;;;;;;5043699;28;20033;-66
2022/01/02 10:24:26;;;;;;;32.08;14.32;;;18.30;66.30;;;;;;5044013;28;20483;-64
2022/01/02 10:27:18;;;;;;;32.08;14.32;;;18.30;66.10;;;;;;5044194;28;20029;-66
2022/01/02 10:29:51;;;;;;;30.83;13.80;;;18.30;66.00;;;;;;5044075;28;20029;-63
2022/01/02 10:32:39;;;;;;;29.55;12.95;;;18.30;66.00;;;;;;5037157;28;20032;-65
2022/01/02 10:35:16;;;;;;;26.25;11.95;;;18.30;66.00;;;;;;5042354;28;20074;-64
2022/01/02 10:37:52;;;;;;;25.95;11.75;;;18.30;66.00;;;;;;5043584;28;20033;-66
2022/01/02 10:40:34;;;;;;;25.90;10.57;;;18.30;66.10;;;;;;5043635;28;20028;-65
2022/01/02 10:43:01;;;;;;;20.55;10.43;;;18.30;66.20;;;;;;5042688;28;20795;-64
2022/01/02 10:45:31;;;;;;;17.20;9.23;;;18.30;66.40;;;;;;5043871;28;20036;-65
2022/01/02 10:47:57;;;;;;;19.60;8.43;;;18.30;66.40;;;;;;5043403;28;20048;-65
2022/01/02 10:50:22;;;;;;;14.77;7.57;;;18.30;66.40;;;;;;5043360;28;20025;-64
2022/01/02 10:52:48;;;;;;;15.80;7.88;;;18.30;66.30;;;;;;5041843;28;20063;-64
2022/01/02 10:55:17;;;;;;;14.20;7.82;;;18.30;66.10;;;;;;5042624;28;20029;-64
2022/01/02 10:57:43;;;;;;;13.90;7.00;;;18.30;66.00;;;;;;5043406;28;20098;-64
2022/01/02 11:00:09;;;;;;;13.73;6.28;;;18.30;65.70;;;;;;5042874;28;20029;-64
2022/01/02 11:02:34;;;;;;;10.40;5.15;;;18.30;65.60;;;;;;5042480;28;20033;-63
2022/01/02 11:05:05;;;;;;;7.75;4.68;;;18.30;65.30;;;;;;5041126;28;20529;-62
2022/01/02 11:07:51;;;;;;;8.90;4.53;;;18.30;65.00;;;;;;5042797;28;20037;-61
2022/01/02 11:10:18;;;;;;;9.73;4.90;;;18.30;64.80;;;;;;5042644;28;20029;-58
2022/01/02 11:12:44;;;;;;;7.13;3.85;;;18.30;64.50;;;;;;5042987;28;20056;-64
2022/01/02 11:15:11;;;;;;;10.50;3.97;;;18.30;64.30;;;;;;5042411;28;20048;-60
2022/01/02 11:17:36;;;;;;;6.32;3.75;;;18.30;64.10;;;;;;5043047;28;20029;-64
2022/01/02 11:20:19;;;;;;;7.63;4.25;;;18.30;64.00;;;;;;5042132;28;20086;-63
2022/01/02 11:22:49;;;;;;;7.65;3.92;;;18.30;63.90;;;;;;5047257;28;20037;-63
2022/01/02 11:25:36;;;;;;;7.88;3.60;;;18.30;64.00;;;;;;5047044;28;20029;-56
2022/01/02 11:28:04;;;;;;;7.40;3.90;;;18.30;63.90;;;;;;5045530;28;20417;-63
2022/01/02 11:30:30;;;;;;;6.90;3.63;;;18.20;63.90;;;;;;5046920;28;20617;-62
2022/01/02 11:33:12;;;;;;;6.65;3.97;;;18.20;63.90;;;;;;5047120;28;20064;-60
2022/01/02 11:35:39;;;;;;;5.85;4.13;;;18.20;64.00;;;;;;5040641;28;20040;-64
2022/01/02 11:38:06;;;;;;;8.90;3.83;;;18.20;64.00;;;;;;5046313;28;20398;-60
2022/01/02 11:40:52;;;;;;;9.50;3.95;;;18.20;64.10;;;;;;5046368;28;20408;-62
2022/01/02 11:43:38;;;;;;;6.97;3.92;;;18.20;64.20;;;;;;5045252;28;20055;-63
2022/01/02 11:46:15;;;;;;;6.70;3.55;;;18.20;64.20;;;;;;5043539;28;20036;-63
2022/01/02 11:48:41;;;;;;;6.25;3.55;;;18.20;64.30;;;;;;5044951;28;20076;-64
2022/01/02 11:51:06;;;;;;;5.88;3.75;;;18.20;64.30;;;;;;5045609;28;20828;-64
2022/01/02 11:53:35;;;;;;;7.13;3.58;;;18.20;64.30;;;;;;5044635;28;20040;-62
2022/01/02 11:56:01;;;;;;;4.85;3.33;;;18.20;64.40;;;;;;5039223;28;20405;-63
2022/01/02 11:58:38;;;;;;;4.95;3.13;;;18.20;64.30;;;;;;5047124;28;20048;-63
2022/01/02 12:01:04;;;;;;;5.72;3.47;;;18.20;64.30;;;;;;5047309;28;20024;-64
2022/01/02 12:03:41;;;;;;;6.93;3.80;;;18.10;64.30;;;;;;5047587;28;20716;-63
2022/01/02 12:06:17;;;;;;;5.65;3.58;;;18.20;64.40;;;;;;5046776;28;20033;-63
2022/01/02 12:08:43;;;;;;;9.23;3.53;;;18.20;64.40;;;;;;5047056;28;20033;-62
2022/01/02 12:11:36;;;;;;;8.00;3.97;;;18.10;64.30;;;;;;5047257;28;20028;-63
2022/01/02 12:14:06;;;;;;;5.95;3.72;;;18.10;64.40;;;;;;5044414;28;20036;-63
2022/01/02 12:16:35;;;;;;;8.05;4.22;;;18.10;64.40;;;;;;5046649;28;20420;-64
2022/01/02 12:19:02;;;;;;;6.50;3.58;;;18.10;64.50;;;;;;5045572;28;20106;-64
2022/01/02 12:21:28;;;;;;;10.30;5.00;;;18.20;64.60;;;;;;5046007;28;20326;-64
2022/01/02 12:23:53;;;;;;;10.40;5.38;;;18.10;64.80;;;;;;5047500;28;20071;-66
2022/01/02 12:26:21;;;;;;;11.52;5.80;;;18.10;64.90;;;;;;5046671;28;20044;-66
2022/01/02 12:28:58;;;;;;;13.02;6.57;;;18.20;65.20;;;;;;5046673;28;20115;-66
2022/01/02 12:31:28;;;;;;;12.98;6.78;;;18.20;65.30;;;;;;5037175;28;20037;-64
2022/01/02 12:33:54;;;;;;;17.27;7.68;;;18.20;65.40;;;;;;5035382;28;20048;-64
2022/01/02 12:36:20;;;;;;;30.85;12.15;;;18.20;65.70;;;;;;5045714;28;20025;-66
2022/01/02 12:38:48;;;;;;;49.53;20.17;;;18.10;65.70;;;;;;5046723;28;20317;-65
2022/01/02 12:41:14;;;;;;;59.72;23.77;;;18.10;66.00;;;;;;5046038;28;20167;-62
2022/01/02 12:43:41;;;;;;;57.17;24.98;;;18.10;66.30;;;;;;5044542;28;20112;-65
2022/01/02 12:46:07;;;;;;;60.58;25.80;;;18.10;66.60;;;;;;5045242;28;20048;-64
2022/01/02 12:48:33;;;;;;;66.07;28.58;;;18.10;66.60;;;;;;5045648;28;20033;-65
2022/01/02 12:51:11;;;;;;;60.08;26.00;;;18.10;66.60;;;;;;5046718;28;20040;-65